sensor_id;sensor_type;location;lat;lon;timestamp;P1;durP1;ratioP1;P2;durP2;ratioP2
2956;SDS011;1488;51.548;7.222;2022-09-01T00:01:41;1.00;;;0.90;;
2956;SDS011;1488;51.548;7.222;2022-09-01T00:04:12;0.90;;;0.80;;
2956;SDS011;1488;51.548;7.222;2022-09-01T00:06:41;1.50;;;1.00;;
2956;SDS011;1488;51.548;7.222;2022-09-01T00:09:09;1.50;;;0.80;;
2956;SDS011;1488;51.548;7.222;2022-09-01T00:11:38;1.00;;;0.90;;
2956;SDS011;1488;51.548;7.222;2022-09-01T00:14:09;1.00;;;0.90;;
2956;SDS011;1488;51.548;7.222;2022-09-01T00:16:36;1.00;;;0.90;;
2956;SDS011;1488;51.548;7.222;2022-09-01T00:19:04;1.30;;;1.00;;
2956;SDS011;1488;51.548;7.222;2022-09-01T00:21:33;1.63;;;0.80;;
2956;SDS011;1488;51.548;7.222;2022-09-01T00:24:02;1.03;;;0.93;;
2956;SDS011;1488;51.548;7.222;2022-09-01T00:26:30;0.90;;;0.80;;
2956;SDS011;1488;51.548;7.222;2022-09-01T00:28:57;0.90;;;0.80;;
2956;SDS011;1488;51.548;7.222;2022-09-01T00:31:26;0.90;;;0.80;;
2956;SDS011;1488;51.548;7.222;2022-09-01T00:33:54;1.20;;;1.10;;
2956;SDS011;1488;51.548;7.222;2022-09-01T00:36:21;0.90;;;0.80;;
2956;SDS011;1488;51.548;7.222;2022-09-01T00:38:48;0.90;;;0.80;;
2956;SDS011;1488;51.548;7.222;2022-09-01T00:41:16;0.87;;;0.70;;
2956;SDS011;1488;51.548;7.222;2022-09-01T00:43:45;0.83;;;0.73;;
2956;SDS011;1488;51.548;7.222;2022-09-01T00:46:14;1.10;;;1.00;;
2956;SDS011;1488;51.548;7.222;2022-09-01T00:48:44;0.80;;;0.70;;
2956;SDS011;1488;51.548;7.222;2022-09-01T00:51:13;1.03;;;0.93;;
2956;SDS011;1488;51.548;7.222;2022-09-01T00:53:41;1.00;;;0.90;;
2956;SDS011;1488;51.548;7.222;2022-09-01T00:56:10;1.00;;;0.90;;
2956;SDS011;1488;51.548;7.222;2022-09-01T00:58:38;1.00;;;0.90;;
2956;SDS011;1488;51.548;7.222;2022-09-01T01:01:06;0.90;;;0.77;;
2956;SDS011;1488;51.548;7.222;2022-09-01T01:03:34;1.00;;;0.90;;
2956;SDS011;1488;51.548;7.222;2022-09-01T01:06:04;1.17;;;0.70;;
2956;SDS011;1488;51.548;7.222;2022-09-01T01:08:34;1.00;;;0.80;;
2956;SDS011;1488;51.548;7.222;2022-09-01T01:11:04;0.90;;;0.80;;
2956;SDS011;1488;51.548;7.222;2022-09-01T01:13:45;1.33;;;0.70;;
2956;SDS011;1488;51.548;7.222;2022-09-01T01:16:15;1.17;;;0.90;;
2956;SDS011;1488;51.548;7.222;2022-09-01T01:18:42;0.80;;;0.80;;
2956;SDS011;1488;51.548;7.222;2022-09-01T01:21:13;0.80;;;0.70;;
2956;SDS011;1488;51.548;7.222;2022-09-01T01:24:03;1.80;;;1.17;;
2956;SDS011;1488;51.548;7.222;2022-09-01T01:26:36;1.20;;;1.10;;
2956;SDS011;1488;51.548;7.222;2022-09-01T01:29:03;0.97;;;0.87;;
2956;SDS011;1488;51.548;7.222;2022-09-01T01:31:33;1.10;;;1.00;;
2956;SDS011;1488;51.548;7.222;2022-09-01T01:34:01;0.80;;;0.80;;
2956;SDS011;1488;51.548;7.222;2022-09-01T01:36:32;0.90;;;0.80;;
2956;SDS011;1488;51.548;7.222;2022-09-01T01:39:05;0.80;;;0.80;;
2956;SDS011;1488;51.548;7.222;2022-09-01T01:41:34;0.93;;;0.83;;
2956;SDS011;1488;51.548;7.222;2022-09-01T01:44:06;1.10;;;1.00;;
2956;SDS011;1488;51.548;7.222;2022-09-01T01:46:34;0.87;;;0.80;;
2956;SDS011;1488;51.548;7.222;2022-09-01T01:49:07;0.80;;;0.70;;
2956;SDS011;1488;51.548;7.222;2022-09-01T01:51:35;0.97;;;0.87;;
2956;SDS011;1488;51.548;7.222;2022-09-01T01:54:02;0.80;;;0.70;;
2956;SDS011;1488;51.548;7.222;2022-09-01T01:56:30;0.90;;;0.80;;
2956;SDS011;1488;51.548;7.222;2022-09-01T01:59:02;1.00;;;0.90;;
2956;SDS011;1488;51.548;7.222;2022-09-01T02:01:30;1.00;;;0.90;;
2956;SDS011;1488;51.548;7.222;2022-09-01T02:03:57;1.00;;;0.90;;
2956;SDS011;1488;51.548;7.222;2022-09-01T02:06:26;1.43;;;1.20;;
2956;SDS011;1488;51.548;7.222;2022-09-01T02:08:54;0.83;;;0.80;;
2956;SDS011;1488;51.548;7.222;2022-09-01T02:11:23;1.67;;;0.90;;
2956;SDS011;1488;51.548;7.222;2022-09-01T02:13:50;0.80;;;0.70;;
2956;SDS011;1488;51.548;7.222;2022-09-01T02:16:20;0.93;;;0.83;;
2956;SDS011;1488;51.548;7.222;2022-09-01T02:18:48;0.90;;;0.80;;
2956;SDS011;1488;51.548;7.222;2022-09-01T02:21:18;0.83;;;0.70;;
2956;SDS011;1488;51.548;7.222;2022-09-01T02:23:48;0.87;;;0.80;;
2956;SDS011;1488;51.548;7.222;2022-09-01T02:26:25;1.00;;;0.90;;
2956;SDS011;1488;51.548;7.222;2022-09-01T02:28:56;0.80;;;0.70;;
2956;SDS011;1488;51.548;7.222;2022-09-01T02:31:26;0.80;;;0.80;;
2956;SDS011;1488;51.548;7.222;2022-09-01T02:33:54;1.00;;;0.90;;
2956;SDS011;1488;51.548;7.222;2022-09-01T02:36:21;0.83;;;0.80;;
2956;SDS011;1488;51.548;7.222;2022-09-01T02:38:49;1.10;;;1.00;;
2956;SDS011;1488;51.548;7.222;2022-09-01T02:41:17;0.93;;;0.80;;
2956;SDS011;1488;51.548;7.222;2022-09-01T02:43:47;0.87;;;0.80;;
2956;SDS011;1488;51.548;7.222;2022-09-01T02:46:14;1.00;;;0.90;;
2956;SDS011;1488;51.548;7.222;2022-09-01T02:48:42;1.00;;;0.90;;
2956;SDS011;1488;51.548;7.222;2022-09-01T02:51:12;0.90;;;0.80;;
2956;SDS011;1488;51.548;7.222;2022-09-01T02:53:41;0.90;;;0.80;;
2956;SDS011;1488;51.548;7.222;2022-09-01T02:56:09;0.80;;;0.70;;
2956;SDS011;1488;51.548;7.222;2022-09-01T02:58:38;0.80;;;0.80;;
2956;SDS011;1488;51.548;7.222;2022-09-01T03:01:10;1.00;;;0.90;;
2956;SDS011;1488;51.548;7.222;2022-09-01T03:03:38;0.80;;;0.70;;
2956;SDS011;1488;51.548;7.222;2022-09-01T03:06:05;1.00;;;0.90;;
2956;SDS011;1488;51.548;7.222;2022-09-01T03:08:35;1.17;;;1.07;;
2956;SDS011;1488;51.548;7.222;2022-09-01T03:11:03;0.80;;;0.80;;
2956;SDS011;1488;51.548;7.222;2022-09-01T03:13:34;0.90;;;0.80;;
2956;SDS011;1488;51.548;7.222;2022-09-01T03:16:03;0.90;;;0.70;;
2956;SDS011;1488;51.548;7.222;2022-09-01T03:18:31;0.83;;;0.77;;
2956;SDS011;1488;51.548;7.222;2022-09-01T03:20:58;0.80;;;0.80;;
2956;SDS011;1488;51.548;7.222;2022-09-01T03:23:26;0.80;;;0.70;;
2956;SDS011;1488;51.548;7.222;2022-09-01T03:25:56;1.00;;;0.80;;
2956;SDS011;1488;51.548;7.222;2022-09-01T03:28:24;0.80;;;0.70;;
2956;SDS011;1488;51.548;7.222;2022-09-01T03:30:51;0.80;;;0.70;;
2956;SDS011;1488;51.548;7.222;2022-09-01T03:33:22;0.90;;;0.83;;
2956;SDS011;1488;51.548;7.222;2022-09-01T03:35:50;0.90;;;0.80;;
2956;SDS011;1488;51.548;7.222;2022-09-01T03:38:17;1.00;;;0.90;;
2956;SDS011;1488;51.548;7.222;2022-09-01T03:40:48;1.07;;;0.97;;
2956;SDS011;1488;51.548;7.222;2022-09-01T03:43:18;0.90;;;0.70;;
2956;SDS011;1488;51.548;7.222;2022-09-01T03:45:48;1.00;;;0.90;;
2956;SDS011;1488;51.548;7.222;2022-09-01T03:48:16;0.90;;;0.80;;
2956;SDS011;1488;51.548;7.222;2022-09-01T03:50:44;0.80;;;0.80;;
2956;SDS011;1488;51.548;7.222;2022-09-01T03:53:12;1.20;;;0.90;;
2956;SDS011;1488;51.548;7.222;2022-09-01T03:55:40;0.80;;;0.70;;
2956;SDS011;1488;51.548;7.222;2022-09-01T03:58:10;0.90;;;0.80;;
2956;SDS011;1488;51.548;7.222;2022-09-01T04:00:44;1.00;;;0.90;;
2956;SDS011;1488;51.548;7.222;2022-09-01T04:03:13;0.90;;;0.77;;
2956;SDS011;1488;51.548;7.222;2022-09-01T04:05:47;1.00;;;0.70;;
2956;SDS011;1488;51.548;7.222;2022-09-01T04:08:16;0.80;;;0.70;;
2956;SDS011;1488;51.548;7.222;2022-09-01T04:10:45;1.00;;;0.90;;
2956;SDS011;1488;51.548;7.222;2022-09-01T04:13:15;0.80;;;0.80;;
2956;SDS011;1488;51.548;7.222;2022-09-01T04:15:44;0.80;;;0.80;;
2956;SDS011;1488;51.548;7.222;2022-09-01T04:18:11;0.80;;;0.70;;
2956;SDS011;1488;51.548;7.222;2022-09-01T04:20:45;1.83;;;0.87;;
2956;SDS011;1488;51.548;7.222;2022-09-01T04:23:16;1.40;;;0.80;;
2956;SDS011;1488;51.548;7.222;2022-09-01T04:25:51;1.00;;;0.90;;
2956;SDS011;1488;51.548;7.222;2022-09-01T04:28:20;0.80;;;0.80;;
2956;SDS011;1488;51.548;7.222;2022-09-01T04:30:54;0.80;;;0.70;;
2956;SDS011;1488;51.548;7.222;2022-09-01T04:33:23;0.90;;;0.80;;
2956;SDS011;1488;51.548;7.222;2022-09-01T04:35:52;1.00;;;0.90;;
2956;SDS011;1488;51.548;7.222;2022-09-01T04:38:21;0.90;;;0.80;;
2956;SDS011;1488;51.548;7.222;2022-09-01T04:40:50;1.00;;;0.90;;
2956;SDS011;1488;51.548;7.222;2022-09-01T04:43:21;1.00;;;0.90;;
2956;SDS011;1488;51.548;7.222;2022-09-01T04:45:48;0.90;;;0.80;;
2956;SDS011;1488;51.548;7.222;2022-09-01T04:48:17;0.80;;;0.80;;
2956;SDS011;1488;51.548;7.222;2022-09-01T04:50:46;0.87;;;0.83;;
2956;SDS011;1488;51.548;7.222;2022-09-01T04:53:16;1.10;;;0.90;;
2956;SDS011;1488;51.548;7.222;2022-09-01T04:55:44;1.00;;;0.90;;
2956;SDS011;1488;51.548;7.222;2022-09-01T04:58:12;0.80;;;0.80;;
2956;SDS011;1488;51.548;7.222;2022-09-01T05:00:43;0.97;;;0.87;;
2956;SDS011;1488;51.548;7.222;2022-09-01T05:03:12;0.87;;;0.80;;
2956;SDS011;1488;51.548;7.222;2022-09-01T05:05:43;0.87;;;0.80;;
2956;SDS011;1488;51.548;7.222;2022-09-01T05:08:11;0.90;;;0.80;;
2956;SDS011;1488;51.548;7.222;2022-09-01T05:10:40;1.00;;;0.90;;
2956;SDS011;1488;51.548;7.222;2022-09-01T05:13:08;0.90;;;0.80;;
2956;SDS011;1488;51.548;7.222;2022-09-01T05:15:37;0.90;;;0.80;;
2956;SDS011;1488;51.548;7.222;2022-09-01T05:18:10;1.27;;;0.80;;
2956;SDS011;1488;51.548;7.222;2022-09-01T05:20:38;1.10;;;1.00;;
2956;SDS011;1488;51.548;7.222;2022-09-01T05:23:08;0.90;;;0.80;;
2956;SDS011;1488;51.548;7.222;2022-09-01T05:25:38;0.90;;;0.80;;
2956;SDS011;1488;51.548;7.222;2022-09-01T05:28:06;0.83;;;0.73;;
2956;SDS011;1488;51.548;7.222;2022-09-01T05:30:36;0.90;;;0.83;;
2956;SDS011;1488;51.548;7.222;2022-09-01T05:33:04;1.00;;;0.90;;
2956;SDS011;1488;51.548;7.222;2022-09-01T05:35:41;1.00;;;0.80;;
2956;SDS011;1488;51.548;7.222;2022-09-01T05:38:11;1.20;;;0.90;;
2956;SDS011;1488;51.548;7.222;2022-09-01T05:40:40;0.97;;;0.87;;
2956;SDS011;1488;51.548;7.222;2022-09-01T05:43:07;0.90;;;0.80;;
2956;SDS011;1488;51.548;7.222;2022-09-01T05:45:37;0.80;;;0.70;;
2956;SDS011;1488;51.548;7.222;2022-09-01T05:48:07;0.80;;;0.70;;
2956;SDS011;1488;51.548;7.222;2022-09-01T05:50:38;0.80;;;0.80;;
2956;SDS011;1488;51.548;7.222;2022-09-01T05:53:07;0.80;;;0.70;;
2956;SDS011;1488;51.548;7.222;2022-09-01T05:55:41;1.00;;;0.90;;
2956;SDS011;1488;51.548;7.222;2022-09-01T05:58:09;0.80;;;0.80;;
2956;SDS011;1488;51.548;7.222;2022-09-01T06:00:38;0.97;;;0.87;;
2956;SDS011;1488;51.548;7.222;2022-09-01T06:03:06;0.80;;;0.80;;
2956;SDS011;1488;51.548;7.222;2022-09-01T06:05:34;0.80;;;0.77;;
2956;SDS011;1488;51.548;7.222;2022-09-01T06:08:02;6.13;;;1.07;;
2956;SDS011;1488;51.548;7.222;2022-09-01T06:10:31;1.13;;;1.03;;
2956;SDS011;1488;51.548;7.222;2022-09-01T06:13:02;1.73;;;1.10;;
2956;SDS011;1488;51.548;7.222;2022-09-01T06:15:30;1.40;;;1.17;;
2956;SDS011;1488;51.548;7.222;2022-09-01T06:17:57;1.93;;;1.20;;
2956;SDS011;1488;51.548;7.222;2022-09-01T06:20:24;2.60;;;1.10;;
2956;SDS011;1488;51.548;7.222;2022-09-01T06:22:52;3.30;;;1.17;;
2956;SDS011;1488;51.548;7.222;2022-09-01T06:25:19;4.90;;;1.33;;
2956;SDS011;1488;51.548;7.222;2022-09-01T06:27:46;1.57;;;1.47;;
2956;SDS011;1488;51.548;7.222;2022-09-01T06:30:15;1.40;;;1.10;;
2956;SDS011;1488;51.548;7.222;2022-09-01T06:32:44;1.90;;;1.40;;
2956;SDS011;1488;51.548;7.222;2022-09-01T06:35:14;1.50;;;1.40;;
2956;SDS011;1488;51.548;7.222;2022-09-01T06:37:42;1.97;;;1.27;;
2956;SDS011;1488;51.548;7.222;2022-09-01T06:40:10;2.77;;;1.30;;
2956;SDS011;1488;51.548;7.222;2022-09-01T06:42:41;1.40;;;1.30;;
2956;SDS011;1488;51.548;7.222;2022-09-01T06:45:11;3.37;;;1.30;;
2956;SDS011;1488;51.548;7.222;2022-09-01T06:47:40;2.53;;;1.20;;
2956;SDS011;1488;51.548;7.222;2022-09-01T06:50:09;2.13;;;1.07;;
2956;SDS011;1488;51.548;7.222;2022-09-01T06:52:39;3.43;;;1.33;;
2956;SDS011;1488;51.548;7.222;2022-09-01T06:55:08;1.90;;;1.10;;
2956;SDS011;1488;51.548;7.222;2022-09-01T06:57:36;2.90;;;1.20;;
2956;SDS011;1488;51.548;7.222;2022-09-01T07:00:05;5.80;;;1.13;;
2956;SDS011;1488;51.548;7.222;2022-09-01T07:02:42;6.57;;;1.10;;
2956;SDS011;1488;51.548;7.222;2022-09-01T07:05:10;1.57;;;1.47;;
2956;SDS011;1488;51.548;7.222;2022-09-01T07:07:41;2.70;;;1.37;;
2956;SDS011;1488;51.548;7.222;2022-09-01T07:10:17;5.40;;;1.30;;
2956;SDS011;1488;51.548;7.222;2022-09-01T07:12:46;2.13;;;1.23;;
2956;SDS011;1488;51.548;7.222;2022-09-01T07:15:14;1.30;;;1.20;;
2956;SDS011;1488;51.548;7.222;2022-09-01T07:17:44;3.47;;;1.30;;
2956;SDS011;1488;51.548;7.222;2022-09-01T07:20:14;6.00;;;1.30;;
2956;SDS011;1488;51.548;7.222;2022-09-01T07:22:41;2.30;;;1.10;;
2956;SDS011;1488;51.548;7.222;2022-09-01T07:25:08;3.80;;;1.40;;
2956;SDS011;1488;51.548;7.222;2022-09-01T07:27:36;2.17;;;1.20;;
2956;SDS011;1488;51.548;7.222;2022-09-01T07:30:04;3.10;;;1.10;;
2956;SDS011;1488;51.548;7.222;2022-09-01T07:32:33;1.10;;;0.90;;
2956;SDS011;1488;51.548;7.222;2022-09-01T07:35:02;2.17;;;1.23;;
2956;SDS011;1488;51.548;7.222;2022-09-01T07:37:31;1.30;;;1.20;;
2956;SDS011;1488;51.548;7.222;2022-09-01T07:40:01;4.17;;;1.20;;
2956;SDS011;1488;51.548;7.222;2022-09-01T07:42:30;3.50;;;1.50;;
2956;SDS011;1488;51.548;7.222;2022-09-01T07:44:57;4.73;;;1.30;;
2956;SDS011;1488;51.548;7.222;2022-09-01T07:47:24;6.47;;;1.50;;
2956;SDS011;1488;51.548;7.222;2022-09-01T07:49:53;4.73;;;1.13;;
2956;SDS011;1488;51.548;7.222;2022-09-01T07:52:22;2.20;;;1.50;;
2956;SDS011;1488;51.548;7.222;2022-09-01T07:54:49;3.13;;;1.70;;
2956;SDS011;1488;51.548;7.222;2022-09-01T07:57:16;3.70;;;1.10;;
2956;SDS011;1488;51.548;7.222;2022-09-01T07:59:43;3.53;;;1.47;;
2956;SDS011;1488;51.548;7.222;2022-09-01T08:02:10;5.53;;;1.03;;
2956;SDS011;1488;51.548;7.222;2022-09-01T08:04:37;3.80;;;1.10;;
2956;SDS011;1488;51.548;7.222;2022-09-01T08:07:04;2.57;;;1.20;;
2956;SDS011;1488;51.548;7.222;2022-09-01T08:09:33;1.20;;;1.00;;
2956;SDS011;1488;51.548;7.222;2022-09-01T08:12:02;1.57;;;1.20;;
2956;SDS011;1488;51.548;7.222;2022-09-01T08:14:30;11.67;;;1.63;;
2956;SDS011;1488;51.548;7.222;2022-09-01T08:16:57;3.43;;;1.10;;
2956;SDS011;1488;51.548;7.222;2022-09-01T08:19:24;3.87;;;1.40;;
2956;SDS011;1488;51.548;7.222;2022-09-01T08:21:51;2.00;;;1.20;;
2956;SDS011;1488;51.548;7.222;2022-09-01T08:24:18;3.57;;;1.13;;
2956;SDS011;1488;51.548;7.222;2022-09-01T08:27:02;2.90;;;0.90;;
2956;SDS011;1488;51.548;7.222;2022-09-01T08:29:29;2.17;;;1.03;;
2956;SDS011;1488;51.548;7.222;2022-09-01T08:31:56;1.40;;;1.30;;
2956;SDS011;1488;51.548;7.222;2022-09-01T08:34:23;1.00;;;0.90;;
2956;SDS011;1488;51.548;7.222;2022-09-01T08:36:50;2.80;;;0.97;;
2956;SDS011;1488;51.548;7.222;2022-09-01T08:39:17;3.87;;;1.20;;
2956;SDS011;1488;51.548;7.222;2022-09-01T08:41:46;1.57;;;1.10;;
2956;SDS011;1488;51.548;7.222;2022-09-01T08:44:26;1.63;;;1.10;;
2956;SDS011;1488;51.548;7.222;2022-09-01T08:47:00;1.40;;;1.00;;
2956;SDS011;1488;51.548;7.222;2022-09-01T08:49:30;3.30;;;1.30;;
2956;SDS011;1488;51.548;7.222;2022-09-01T08:52:01;2.00;;;1.00;;
2956;SDS011;1488;51.548;7.222;2022-09-01T08:54:37;3.00;;;1.10;;
2956;SDS011;1488;51.548;7.222;2022-09-01T08:57:10;3.47;;;1.20;;
2956;SDS011;1488;51.548;7.222;2022-09-01T08:59:42;4.00;;;1.13;;
2956;SDS011;1488;51.548;7.222;2022-09-01T09:02:14;1.93;;;0.90;;
2956;SDS011;1488;51.548;7.222;2022-09-01T09:04:58;2.70;;;1.00;;
2956;SDS011;1488;51.548;7.222;2022-09-01T09:07:33;1.30;;;1.20;;
2956;SDS011;1488;51.548;7.222;2022-09-01T09:10:13;1.30;;;1.20;;
2956;SDS011;1488;51.548;7.222;2022-09-01T09:12:48;5.53;;;1.20;;
2956;SDS011;1488;51.548;7.222;2022-09-01T09:15:26;4.13;;;1.00;;
2956;SDS011;1488;51.548;7.222;2022-09-01T09:18:00;2.33;;;1.10;;
2956;SDS011;1488;51.548;7.222;2022-09-01T09:20:38;1.47;;;0.87;;
2956;SDS011;1488;51.548;7.222;2022-09-01T09:23:10;1.40;;;1.10;;
2956;SDS011;1488;51.548;7.222;2022-09-01T09:25:41;1.00;;;0.90;;
2956;SDS011;1488;51.548;7.222;2022-09-01T09:28:08;1.00;;;0.90;;
2956;SDS011;1488;51.548;7.222;2022-09-01T09:30:37;3.90;;;0.97;;
2956;SDS011;1488;51.548;7.222;2022-09-01T09:33:04;1.00;;;0.90;;
2956;SDS011;1488;51.548;7.222;2022-09-01T09:35:35;1.83;;;0.90;;
2956;SDS011;1488;51.548;7.222;2022-09-01T09:38:14;1.30;;;0.90;;
2956;SDS011;1488;51.548;7.222;2022-09-01T09:40:57;0.90;;;0.80;;
2956;SDS011;1488;51.548;7.222;2022-09-01T09:43:25;1.10;;;0.90;;
2956;SDS011;1488;51.548;7.222;2022-09-01T09:46:19;2.60;;;0.93;;
2956;SDS011;1488;51.548;7.222;2022-09-01T09:48:48;1.33;;;0.80;;
2956;SDS011;1488;51.548;7.222;2022-09-01T09:51:30;1.10;;;1.00;;
2956;SDS011;1488;51.548;7.222;2022-09-01T09:54:09;3.47;;;1.00;;
2956;SDS011;1488;51.548;7.222;2022-09-01T09:56:38;1.40;;;0.90;;
2956;SDS011;1488;51.548;7.222;2022-09-01T09:59:15;2.13;;;0.90;;
2956;SDS011;1488;51.548;7.222;2022-09-01T10:01:46;0.97;;;0.87;;
2956;SDS011;1488;51.548;7.222;2022-09-01T10:04:30;1.17;;;1.07;;
2956;SDS011;1488;51.548;7.222;2022-09-01T10:06:59;1.00;;;0.83;;
2956;SDS011;1488;51.548;7.222;2022-09-01T10:09:33;0.83;;;0.80;;
2956;SDS011;1488;51.548;7.222;2022-09-01T10:12:02;3.33;;;1.00;;
2956;SDS011;1488;51.548;7.222;2022-09-01T10:14:32;1.20;;;0.97;;
2956;SDS011;1488;51.548;7.222;2022-09-01T10:17:10;1.50;;;1.10;;
2956;SDS011;1488;51.548;7.222;2022-09-01T10:19:39;1.10;;;0.90;;
2956;SDS011;1488;51.548;7.222;2022-09-01T10:22:14;1.53;;;1.10;;
2956;SDS011;1488;51.548;7.222;2022-09-01T10:24:41;2.30;;;0.90;;
2956;SDS011;1488;51.548;7.222;2022-09-01T10:27:10;2.13;;;1.00;;
2956;SDS011;1488;51.548;7.222;2022-09-01T10:29:45;1.53;;;1.00;;
2956;SDS011;1488;51.548;7.222;2022-09-01T10:32:18;1.10;;;1.00;;
2956;SDS011;1488;51.548;7.222;2022-09-01T10:34:50;1.20;;;1.00;;
2956;SDS011;1488;51.548;7.222;2022-09-01T10:37:18;1.27;;;1.00;;
2956;SDS011;1488;51.548;7.222;2022-09-01T10:42:36;1.63;;;0.90;;
2956;SDS011;1488;51.548;7.222;2022-09-01T10:45:07;1.43;;;0.90;;
2956;SDS011;1488;51.548;7.222;2022-09-01T10:47:44;3.90;;;1.10;;
2956;SDS011;1488;51.548;7.222;2022-09-01T10:50:22;1.17;;;0.90;;
2956;SDS011;1488;51.548;7.222;2022-09-01T10:53:06;1.53;;;0.90;;
2956;SDS011;1488;51.548;7.222;2022-09-01T12:31:12;1.13;;;1.03;;
2956;SDS011;1488;51.548;7.222;2022-09-01T12:33:41;1.00;;;0.90;;
2956;SDS011;1488;51.548;7.222;2022-09-01T12:36:19;1.10;;;1.00;;
2956;SDS011;1488;51.548;7.222;2022-09-01T12:38:48;1.67;;;0.90;;
2956;SDS011;1488;51.548;7.222;2022-09-01T12:41:25;1.40;;;1.00;;
2956;SDS011;1488;51.548;7.222;2022-09-01T12:46:53;2.13;;;0.80;;
2956;SDS011;1488;51.548;7.222;2022-09-01T12:49:21;1.20;;;0.93;;
2956;SDS011;1488;51.548;7.222;2022-09-01T12:52:03;1.20;;;1.10;;
2956;SDS011;1488;51.548;7.222;2022-09-01T12:54:43;1.10;;;0.90;;
2956;SDS011;1488;51.548;7.222;2022-09-01T12:57:10;2.70;;;0.90;;
2956;SDS011;1488;51.548;7.222;2022-09-01T13:00:03;6.83;;;1.10;;
2956;SDS011;1488;51.548;7.222;2022-09-01T13:02:35;2.23;;;1.03;;
2956;SDS011;1488;51.548;7.222;2022-09-01T13:05:23;1.27;;;1.00;;
2956;SDS011;1488;51.548;7.222;2022-09-01T13:07:52;6.60;;;1.17;;
2956;SDS011;1488;51.548;7.222;2022-09-01T13:10:20;1.30;;;1.10;;
2956;SDS011;1488;51.548;7.222;2022-09-01T13:12:49;1.93;;;1.10;;
2956;SDS011;1488;51.548;7.222;2022-09-01T13:15:16;0.80;;;0.80;;
2956;SDS011;1488;51.548;7.222;2022-09-01T13:17:45;0.90;;;0.80;;
2956;SDS011;1488;51.548;7.222;2022-09-01T13:20:13;0.80;;;0.80;;
2956;SDS011;1488;51.548;7.222;2022-09-01T13:22:40;1.00;;;0.90;;
2956;SDS011;1488;51.548;7.222;2022-09-01T13:25:09;0.80;;;0.70;;
2956;SDS011;1488;51.548;7.222;2022-09-01T13:27:37;2.13;;;1.10;;
2956;SDS011;1488;51.548;7.222;2022-09-01T13:30:08;3.03;;;1.10;;
2956;SDS011;1488;51.548;7.222;2022-09-01T13:32:38;0.90;;;0.80;;
2956;SDS011;1488;51.548;7.222;2022-09-01T13:35:07;1.00;;;0.83;;
2956;SDS011;1488;51.548;7.222;2022-09-01T13:37:34;1.90;;;1.40;;
2956;SDS011;1488;51.548;7.222;2022-09-01T13:40:01;1.07;;;0.97;;
2956;SDS011;1488;51.548;7.222;2022-09-01T13:42:29;0.80;;;0.70;;
2956;SDS011;1488;51.548;7.222;2022-09-01T13:44:56;1.67;;;1.03;;
2956;SDS011;1488;51.548;7.222;2022-09-01T13:47:23;1.00;;;0.90;;
2956;SDS011;1488;51.548;7.222;2022-09-01T13:49:50;1.00;;;0.90;;
2956;SDS011;1488;51.548;7.222;2022-09-01T13:52:18;1.07;;;0.90;;
2956;SDS011;1488;51.548;7.222;2022-09-01T13:54:45;1.50;;;1.00;;
2956;SDS011;1488;51.548;7.222;2022-09-01T13:57:12;1.03;;;0.93;;
2956;SDS011;1488;51.548;7.222;2022-09-01T13:59:40;2.27;;;0.90;;
2956;SDS011;1488;51.548;7.222;2022-09-01T14:02:07;0.97;;;0.87;;
2956;SDS011;1488;51.548;7.222;2022-09-01T14:04:34;2.87;;;1.07;;
2956;SDS011;1488;51.548;7.222;2022-09-01T14:07:01;1.13;;;0.90;;
2956;SDS011;1488;51.548;7.222;2022-09-01T14:09:30;0.90;;;0.80;;
2956;SDS011;1488;51.548;7.222;2022-09-01T14:11:57;1.40;;;0.83;;
2956;SDS011;1488;51.548;7.222;2022-09-01T14:14:24;0.90;;;0.80;;
2956;SDS011;1488;51.548;7.222;2022-09-01T14:16:51;1.37;;;0.80;;
2956;SDS011;1488;51.548;7.222;2022-09-01T14:19:18;1.20;;;0.90;;
2956;SDS011;1488;51.548;7.222;2022-09-01T14:21:45;1.37;;;0.90;;
2956;SDS011;1488;51.548;7.222;2022-09-01T14:24:13;0.90;;;0.80;;
2956;SDS011;1488;51.548;7.222;2022-09-01T14:26:46;0.80;;;0.70;;
2956;SDS011;1488;51.548;7.222;2022-09-01T14:29:14;1.53;;;1.10;;
2956;SDS011;1488;51.548;7.222;2022-09-01T14:31:41;0.97;;;0.90;;
2956;SDS011;1488;51.548;7.222;2022-09-01T14:34:09;1.27;;;0.90;;
2956;SDS011;1488;51.548;7.222;2022-09-01T14:36:36;1.13;;;0.90;;
2956;SDS011;1488;51.548;7.222;2022-09-01T14:39:03;0.90;;;0.80;;
2956;SDS011;1488;51.548;7.222;2022-09-01T14:41:30;0.90;;;0.80;;
2956;SDS011;1488;51.548;7.222;2022-09-01T14:43:59;1.00;;;0.90;;
2956;SDS011;1488;51.548;7.222;2022-09-01T14:46:27;11.30;;;0.90;;
2956;SDS011;1488;51.548;7.222;2022-09-01T14:48:55;1.83;;;0.90;;
2956;SDS011;1488;51.548;7.222;2022-09-01T14:51:23;1.27;;;1.07;;
2956;SDS011;1488;51.548;7.222;2022-09-01T14:53:51;0.87;;;0.80;;
2956;SDS011;1488;51.548;7.222;2022-09-01T14:56:19;0.90;;;0.70;;
2956;SDS011;1488;51.548;7.222;2022-09-01T14:58:48;1.13;;;1.00;;
2956;SDS011;1488;51.548;7.222;2022-09-01T15:01:18;0.80;;;0.70;;
2956;SDS011;1488;51.548;7.222;2022-09-01T15:03:47;0.80;;;0.80;;
2956;SDS011;1488;51.548;7.222;2022-09-01T15:06:14;1.17;;;0.90;;
2956;SDS011;1488;51.548;7.222;2022-09-01T15:08:42;0.80;;;0.80;;
2956;SDS011;1488;51.548;7.222;2022-09-01T15:11:11;1.00;;;0.73;;
2956;SDS011;1488;51.548;7.222;2022-09-01T15:13:39;0.83;;;0.70;;
2956;SDS011;1488;51.548;7.222;2022-09-01T15:16:11;0.93;;;0.83;;
2956;SDS011;1488;51.548;7.222;2022-09-01T15:18:41;1.00;;;0.90;;
2956;SDS011;1488;51.548;7.222;2022-09-01T15:21:16;1.40;;;0.90;;
2956;SDS011;1488;51.548;7.222;2022-09-01T15:23:44;0.90;;;0.80;;
2956;SDS011;1488;51.548;7.222;2022-09-01T15:26:12;0.93;;;0.60;;
2956;SDS011;1488;51.548;7.222;2022-09-01T15:28:41;1.00;;;0.90;;
2956;SDS011;1488;51.548;7.222;2022-09-01T15:31:08;0.93;;;0.90;;
2956;SDS011;1488;51.548;7.222;2022-09-01T15:33:36;0.80;;;0.80;;
2956;SDS011;1488;51.548;7.222;2022-09-01T15:36:05;1.00;;;0.90;;
2956;SDS011;1488;51.548;7.222;2022-09-01T15:38:33;1.33;;;0.73;;
2956;SDS011;1488;51.548;7.222;2022-09-01T15:41:00;0.80;;;0.80;;
2956;SDS011;1488;51.548;7.222;2022-09-01T15:43:27;0.90;;;0.70;;
2956;SDS011;1488;51.548;7.222;2022-09-01T15:45:54;1.00;;;0.90;;
2956;SDS011;1488;51.548;7.222;2022-09-01T15:48:23;0.90;;;0.80;;
2956;SDS011;1488;51.548;7.222;2022-09-01T15:50:50;0.80;;;0.60;;
2956;SDS011;1488;51.548;7.222;2022-09-01T15:53:19;1.00;;;0.90;;
2956;SDS011;1488;51.548;7.222;2022-09-01T15:55:46;1.00;;;0.90;;
2956;SDS011;1488;51.548;7.222;2022-09-01T15:58:14;0.90;;;0.80;;
2956;SDS011;1488;51.548;7.222;2022-09-01T16:00:42;1.00;;;0.90;;
2956;SDS011;1488;51.548;7.222;2022-09-01T16:03:10;6.83;;;0.97;;
2956;SDS011;1488;51.548;7.222;2022-09-01T16:05:37;0.90;;;0.73;;
2956;SDS011;1488;51.548;7.222;2022-09-01T16:08:05;0.80;;;0.70;;
2956;SDS011;1488;51.548;7.222;2022-09-01T16:10:35;0.93;;;0.83;;
2956;SDS011;1488;51.548;7.222;2022-09-01T16:13:03;0.90;;;0.80;;
2956;SDS011;1488;51.548;7.222;2022-09-01T16:15:31;0.80;;;0.70;;
2956;SDS011;1488;51.548;7.222;2022-09-01T16:18:02;0.90;;;0.80;;
2956;SDS011;1488;51.548;7.222;2022-09-01T16:20:47;1.00;;;0.80;;
2956;SDS011;1488;51.548;7.222;2022-09-01T16:23:23;1.00;;;0.90;;
2956;SDS011;1488;51.548;7.222;2022-09-01T16:25:58;0.90;;;0.80;;
2956;SDS011;1488;51.548;7.222;2022-09-01T16:28:26;1.20;;;1.10;;
2956;SDS011;1488;51.548;7.222;2022-09-01T16:30:55;0.90;;;0.80;;
2956;SDS011;1488;51.548;7.222;2022-09-01T16:33:26;0.80;;;0.70;;
2956;SDS011;1488;51.548;7.222;2022-09-01T16:35:57;0.90;;;0.70;;
2956;SDS011;1488;51.548;7.222;2022-09-01T16:38:42;1.30;;;1.00;;
2956;SDS011;1488;51.548;7.222;2022-09-01T16:41:16;1.00;;;0.90;;
2956;SDS011;1488;51.548;7.222;2022-09-01T16:44:03;1.40;;;0.70;;
2956;SDS011;1488;51.548;7.222;2022-09-01T16:46:38;1.57;;;0.80;;
2956;SDS011;1488;51.548;7.222;2022-09-01T16:49:11;1.20;;;0.80;;
2956;SDS011;1488;51.548;7.222;2022-09-01T16:51:47;0.90;;;0.70;;
2956;SDS011;1488;51.548;7.222;2022-09-01T16:54:22;2.83;;;0.90;;
2956;SDS011;1488;51.548;7.222;2022-09-01T16:57:00;0.90;;;0.90;;
2956;SDS011;1488;51.548;7.222;2022-09-01T16:59:36;4.13;;;1.10;;
2956;SDS011;1488;51.548;7.222;2022-09-01T17:02:14;1.20;;;0.90;;
2956;SDS011;1488;51.548;7.222;2022-09-01T17:04:48;0.93;;;0.83;;
2956;SDS011;1488;51.548;7.222;2022-09-01T17:07:19;4.87;;;0.80;;
2956;SDS011;1488;51.548;7.222;2022-09-01T17:09:50;2.00;;;0.90;;
2956;SDS011;1488;51.548;7.222;2022-09-01T17:12:27;1.53;;;0.90;;
2956;SDS011;1488;51.548;7.222;2022-09-01T17:15:06;1.00;;;0.90;;